createdAt,value
2019-02-09T00:08:12.413Z,20.08
2019-02-09T00:10:41.374Z,18.85
2019-02-09T00:13:10.294Z,20.08
2019-02-09T00:15:39.390Z,20.20
2019-02-09T00:18:08.257Z,19.80
2019-02-09T00:20:37.220Z,19.98
2019-02-09T00:23:06.591Z,21.45
2019-02-09T00:25:35.792Z,21.42
2019-02-09T00:28:05.002Z,21.48
2019-02-09T00:30:34.951Z,22.27
2019-02-09T00:33:04.222Z,21.02
2019-02-09T00:35:33.384Z,21.05
2019-02-09T00:38:02.618Z,20.97
2019-02-09T00:40:31.657Z,19.40
2019-02-09T00:43:00.560Z,19.60
2019-02-09T00:45:29.653Z,20.37
2019-02-09T00:47:59.038Z,21.05
2019-02-09T00:50:28.126Z,19.83
2019-02-09T00:52:57.952Z,18.27
2019-02-09T00:55:27.619Z,19.42
2019-02-09T00:57:56.870Z,19.85
2019-02-09T01:00:26.147Z,20.25
2019-02-09T01:02:55.128Z,19.15
2019-02-09T01:05:27.798Z,20.17
2019-02-09T01:07:56.975Z,21.37
2019-02-09T01:10:27.740Z,22.45
2019-02-09T01:12:57.038Z,21.68
2019-02-09T01:15:26.250Z,20.27
2019-02-09T01:17:55.375Z,20.35
2019-02-09T01:20:24.840Z,20.77
2019-02-09T01:22:54.686Z,21.50
2019-02-09T01:25:23.765Z,19.60
2019-02-09T01:27:53.026Z,21.57
2019-02-09T01:30:23.844Z,23.47
2019-02-09T01:32:53.120Z,24.52
2019-02-09T01:35:22.218Z,24.82
2019-02-09T01:37:52.099Z,23.10
2019-02-09T01:40:22.869Z,24.02
2019-02-09T01:42:52.395Z,24.12
2019-02-09T01:45:26.826Z,23.30
2019-02-09T01:47:56.830Z,22.40
2019-02-09T01:50:26.878Z,24.03
2019-02-09T01:52:56.144Z,24.43
2019-02-09T01:55:25.951Z,25.65
2019-02-09T01:57:54.763Z,28.47
2019-02-09T02:00:25.949Z,26.82
2019-02-09T02:02:54.991Z,24.20
2019-02-09T02:05:24.623Z,25.43
2019-02-09T02:07:54.031Z,25.68
2019-02-09T02:10:29.439Z,24.85
2019-02-09T02:12:58.645Z,26.93
2019-02-09T02:15:28.349Z,26.95
2019-02-09T02:17:57.294Z,27.65
2019-02-09T02:20:27.443Z,26.35
2019-02-09T02:22:56.439Z,25.55
2019-02-09T02:25:25.567Z,25.12
2019-02-09T02:27:54.554Z,23.47
2019-02-09T02:30:29.163Z,24.30
2019-02-09T02:32:58.214Z,24.60
2019-02-09T02:35:27.211Z,24.23
2019-02-09T02:37:56.398Z,25.48
2019-02-09T02:40:25.486Z,23.38
2019-02-09T02:42:54.715Z,25.68
2019-02-09T02:45:23.810Z,27.22
2019-02-09T02:48:01.854Z,27.30
2019-02-09T02:50:30.731Z,27.58
2019-02-09T02:52:59.711Z,27.22
2019-02-09T02:55:28.844Z,25.75
2019-02-09T02:57:57.905Z,26.80
2019-02-09T03:00:32.103Z,25.75
2019-02-09T03:03:00.026Z,27.27
2019-02-09T03:05:29.147Z,27.67
2019-02-09T03:07:58.325Z,26.62
2019-02-09T03:10:27.471Z,26.80
2019-02-09T03:12:56.519Z,25.72
2019-02-09T03:15:30.040Z,25.48
2019-02-09T03:17:59.075Z,25.97
2019-02-09T03:20:28.078Z,25.20
2019-02-09T03:22:57.013Z,26.30
2019-02-09T03:25:31.508Z,27.55
2019-02-09T03:28:00.521Z,27.73
2019-02-09T03:30:29.702Z,26.87
2019-02-09T03:32:58.788Z,27.90
2019-02-09T03:35:27.818Z,26.93
2019-02-09T03:37:56.797Z,25.40
2019-02-09T03:40:26.541Z,24.40
2019-02-09T03:42:55.605Z,24.80
2019-02-09T03:45:29.332Z,27.27
2019-02-09T03:47:58.562Z,26.10
2019-02-09T03:50:29.384Z,28.20
2019-02-09T03:52:58.465Z,27.20
2019-02-09T03:55:27.724Z,25.35
2019-02-09T03:57:57.030Z,25.43
2019-02-09T04:00:27.648Z,26.00
2019-02-09T04:02:56.728Z,27.17
2019-02-09T04:05:25.789Z,28.98
2019-02-09T04:07:55.285Z,29.20
2019-02-09T04:10:25.576Z,28.25
2019-02-09T04:12:54.648Z,28.25
2019-02-09T04:15:25.378Z,27.62
2019-02-09T04:17:54.719Z,27.42
2019-02-09T04:20:24.206Z,28.05
2019-02-09T04:22:53.789Z,26.93
2019-02-09T04:25:23.280Z,28.50
2019-02-09T04:27:52.472Z,28.17
2019-02-09T04:30:26.138Z,27.60
2019-02-09T04:32:55.288Z,26.37
2019-02-09T04:35:24.642Z,26.65
2019-02-09T04:37:53.917Z,23.90
2019-02-09T04:40:31.082Z,22.83
2019-02-09T04:43:00.267Z,21.57
2019-02-09T04:45:29.286Z,21.65
2019-02-09T04:47:58.333Z,21.23
2019-02-09T04:50:27.591Z,20.57
2019-02-09T04:52:56.661Z,20.88
2019-02-09T04:55:26.459Z,21.42
2019-02-09T04:57:55.843Z,20.08
2019-02-09T05:00:30.843Z,19.80
2019-02-09T05:03:00.281Z,19.77
2019-02-09T05:05:29.994Z,18.92
2019-02-09T05:07:59.051Z,19.80
2019-02-09T05:10:28.079Z,19.20
2019-02-09T05:12:57.144Z,19.37
2019-02-09T05:15:26.144Z,19.57
2019-02-09T05:17:55.138Z,19.55
2019-02-09T05:20:25.052Z,19.40
2019-02-09T05:22:54.766Z,21.00
2019-02-09T05:25:23.984Z,20.57
2019-02-09T05:27:53.038Z,19.90
2019-02-09T05:30:24.060Z,22.20
2019-02-09T05:32:53.908Z,22.70
2019-02-09T05:35:23.122Z,23.38
2019-02-09T05:37:53.159Z,21.93
2019-02-09T05:40:22.893Z,21.10
2019-02-09T05:42:51.954Z,21.57
2019-02-09T05:45:22.802Z,21.35
2019-02-09T05:47:52.116Z,21.60
2019-02-09T05:50:29.913Z,21.02
2019-02-09T05:53:18.462Z,21.23
2019-02-09T05:55:49.066Z,19.75
2019-02-09T05:58:35.019Z,20.25
2019-02-09T06:01:10.314Z,19.32
2019-02-09T06:04:01.365Z,19.57
2019-02-09T06:06:30.820Z,19.55
2019-02-09T06:08:59.731Z,18.90
2019-02-09T06:11:28.653Z,20.32
2019-02-09T06:13:57.668Z,20.17
2019-02-09T06:16:26.595Z,20.03
2019-02-09T06:18:55.596Z,19.15
2019-02-09T06:21:24.729Z,20.50
2019-02-09T06:23:53.652Z,21.50
2019-02-09T06:26:22.560Z,25.10
2019-02-09T06:28:51.435Z,23.70
2019-02-09T06:31:20.672Z,21.17
2019-02-09T06:33:49.653Z,19.48
2019-02-09T06:36:18.748Z,19.03
2019-02-09T06:38:48.068Z,19.70
2019-02-09T06:41:17.064Z,20.12
2019-02-09T06:43:45.977Z,20.75
2019-02-09T06:46:15.312Z,19.55
2019-02-09T06:48:44.523Z,20.30
2019-02-09T06:51:13.670Z,20.92
2019-02-09T06:53:42.591Z,19.65
2019-02-09T06:56:11.608Z,20.10
2019-02-09T06:58:40.960Z,18.90
2019-02-09T07:01:09.872Z,20.20
2019-02-09T07:03:38.788Z,19.35
2019-02-09T07:06:07.812Z,19.02
2019-02-09T07:08:36.747Z,19.62
2019-02-09T07:11:05.955Z,19.85
2019-02-09T07:13:41.448Z,19.48
2019-02-09T07:16:10.435Z,19.15
2019-02-09T07:18:39.452Z,19.23
2019-02-09T07:21:08.468Z,18.02
2019-02-09T07:23:37.520Z,18.17
2019-02-09T07:26:06.579Z,17.57
2019-02-09T07:28:35.537Z,17.00
2019-02-09T07:31:06.066Z,18.87
2019-02-09T07:33:35.260Z,19.42
2019-02-09T07:36:04.533Z,20.77
2019-02-09T07:38:33.540Z,20.08
2019-02-09T07:41:03.048Z,19.98
2019-02-09T07:43:31.989Z,21.35
2019-02-09T07:46:01.049Z,22.00
2019-02-09T07:48:30.130Z,20.62
2019-02-09T07:50:59.164Z,20.12
2019-02-09T07:53:27.996Z,20.40
2019-02-09T07:55:57.052Z,19.57
2019-02-09T07:58:26.156Z,19.15
2019-02-09T08:00:55.540Z,18.95
2019-02-09T08:03:24.731Z,17.00
2019-02-09T08:05:53.784Z,13.40
2019-02-09T08:08:22.777Z,11.55
2019-02-09T08:10:51.716Z,11.50
2019-02-09T08:13:26.848Z,10.53
2019-02-09T08:15:55.780Z,9.70
2019-02-09T08:18:24.714Z,10.60
2019-02-09T08:20:53.812Z,14.23
2019-02-09T08:23:22.810Z,15.70
2019-02-09T08:25:51.895Z,13.00
2019-02-09T08:28:20.940Z,12.33
2019-02-09T08:30:50.256Z,10.70
2019-02-09T08:33:19.208Z,10.95
2019-02-09T08:35:48.221Z,12.65
2019-02-09T08:38:17.573Z,13.83
2019-02-09T08:40:46.504Z,13.83
2019-02-09T08:43:16.958Z,13.95
2019-02-09T08:45:45.956Z,13.30
2019-02-09T08:48:14.983Z,14.28
2019-02-09T08:50:53.052Z,12.80
2019-02-09T08:53:22.679Z,8.28
2019-02-09T08:55:51.739Z,5.72
2019-02-09T08:58:20.701Z,4.55
2019-02-09T09:00:49.715Z,4.22
2019-02-09T09:03:18.564Z,4.30
2019-02-09T09:05:47.649Z,4.20
2019-02-09T09:08:17.004Z,4.00
2019-02-09T09:10:46.023Z,4.10
2019-02-09T09:13:15.000Z,4.07
2019-02-09T09:15:46.561Z,4.00
2019-02-09T09:18:15.587Z,4.10
2019-02-09T09:20:50.328Z,3.90
2019-02-09T09:23:19.343Z,4.03
2019-02-09T09:25:48.348Z,3.80
2019-02-09T09:28:17.435Z,3.93
2019-02-09T09:30:46.456Z,4.03
2019-02-09T09:33:15.513Z,3.85
2019-02-09T09:35:44.576Z,3.83
2019-02-09T09:38:13.606Z,3.40
2019-02-09T09:40:42.882Z,3.60
2019-02-09T09:43:12.209Z,3.50
2019-02-09T09:45:42.281Z,3.40
2019-02-09T09:48:13.093Z,3.40
2019-02-09T09:50:42.331Z,3.62
2019-02-09T09:53:11.354Z,3.33
2019-02-09T09:55:40.415Z,3.10
2019-02-09T09:58:09.789Z,3.20
2019-02-09T10:00:43.009Z,2.73
2019-02-09T10:03:12.035Z,3.05
2019-02-09T10:05:42.129Z,2.80
2019-02-09T10:08:11.200Z,3.10
2019-02-09T10:10:40.211Z,2.95
2019-02-09T10:13:09.252Z,2.83
2019-02-09T10:15:38.293Z,2.75
2019-02-09T10:18:07.295Z,2.83
2019-02-09T10:20:36.323Z,2.90
2019-02-09T10:23:05.652Z,3.00
2019-02-09T10:25:34.675Z,2.83
2019-02-09T10:28:04.064Z,3.00
2019-02-09T10:30:33.063Z,3.10
2019-02-09T10:33:01.992Z,3.10
2019-02-09T10:35:31.180Z,3.40
2019-02-09T10:38:00.259Z,3.20
2019-02-09T10:40:30.745Z,3.02
2019-02-09T10:42:59.819Z,3.50
2019-02-09T10:45:29.528Z,3.40
2019-02-09T10:47:59.059Z,3.25
2019-02-09T10:50:33.456Z,3.08
2019-02-09T10:53:02.424Z,2.90
2019-02-09T10:55:31.408Z,3.17
2019-02-09T10:58:00.411Z,3.10
2019-02-09T11:00:35.322Z,2.83
2019-02-09T11:03:04.992Z,2.70
2019-02-09T11:05:34.036Z,2.95
2019-02-09T11:08:03.192Z,3.02
2019-02-09T11:10:32.201Z,2.65
2019-02-09T11:13:01.148Z,2.75
2019-02-09T11:15:30.172Z,2.85
2019-02-09T11:17:59.153Z,2.83
2019-02-09T11:20:28.060Z,2.85
2019-02-09T11:22:57.076Z,2.80
2019-02-09T11:25:26.104Z,2.85
2019-02-09T11:27:55.297Z,2.95
2019-02-09T11:30:24.639Z,2.80
2019-02-09T11:33:01.733Z,3.00
2019-02-09T11:35:24.407Z,3.05
2019-02-09T11:37:53.431Z,2.80
2019-02-09T11:40:22.464Z,2.80
2019-02-09T11:42:51.789Z,2.80
2019-02-09T11:45:26.152Z,2.60
2019-02-09T11:47:55.477Z,2.58
2019-02-09T11:50:24.529Z,2.70
2019-02-09T11:52:53.964Z,2.70
2019-02-09T11:55:23.092Z,2.35
2019-02-09T11:57:52.120Z,2.33
2019-02-09T12:00:26.187Z,2.50
2019-02-09T12:03:02.898Z,2.40
2019-02-09T12:05:25.890Z,2.60
2019-02-09T12:07:55.292Z,2.70
2019-02-09T12:10:24.705Z,2.67
2019-02-09T12:12:53.740Z,2.67
2019-02-09T12:15:28.581Z,2.70
2019-02-09T12:17:57.634Z,2.72
2019-02-09T12:20:26.633Z,3.10
2019-02-09T12:22:55.709Z,2.85
2019-02-09T12:25:26.733Z,2.50
2019-02-09T12:27:55.743Z,2.60
2019-02-09T12:30:26.738Z,2.85
2019-02-09T12:32:55.739Z,2.90
2019-02-09T12:35:24.756Z,2.65
2019-02-09T12:37:53.678Z,2.72
2019-02-09T12:40:27.566Z,2.90
2019-02-09T12:42:56.681Z,2.65
2019-02-09T12:45:25.664Z,2.80
2019-02-09T12:47:54.609Z,2.65
2019-02-09T12:50:24.603Z,2.33
2019-02-09T12:52:53.592Z,2.50
2019-02-09T12:55:22.604Z,2.55
2019-02-09T12:57:51.604Z,2.52
2019-02-09T13:00:23.570Z,2.40
2019-02-09T13:02:53.006Z,2.50
2019-02-09T13:05:22.012Z,2.47
2019-02-09T13:07:51.078Z,2.40
2019-02-09T13:10:20.426Z,2.55
2019-02-09T13:12:49.428Z,2.60
2019-02-09T13:15:21.340Z,2.60
2019-02-09T13:17:50.339Z,2.50
2019-02-09T13:20:21.515Z,2.72
2019-02-09T13:22:50.719Z,2.40
2019-02-09T13:25:20.179Z,2.60
2019-02-09T13:27:49.391Z,2.50
2019-02-09T13:30:21.923Z,2.70
2019-02-09T13:32:50.947Z,2.65
2019-02-09T13:35:19.932Z,2.60
2019-02-09T13:37:48.991Z,2.70
2019-02-09T13:40:19.212Z,2.85
2019-02-09T13:42:48.210Z,3.20
2019-02-09T13:45:20.825Z,2.80
2019-02-09T13:47:49.796Z,3.10
2019-02-09T13:50:19.021Z,2.87
2019-02-09T13:52:48.084Z,3.30
2019-02-09T13:55:17.020Z,2.90
2019-02-09T13:57:45.988Z,3.12
2019-02-09T14:00:17.823Z,3.10
2019-02-09T14:02:46.928Z,3.17
2019-02-09T14:05:15.968Z,3.10
2019-02-09T14:07:44.948Z,3.10
2019-02-09T14:10:16.164Z,3.00
2019-02-09T14:12:45.544Z,3.58
2019-02-09T14:15:17.580Z,3.87
2019-02-09T14:17:46.980Z,3.60
2019-02-09T14:20:16.216Z,3.30
2019-02-09T14:22:45.264Z,3.52
2019-02-09T14:25:14.909Z,3.97
2019-02-09T14:27:43.983Z,3.72
2019-02-09T14:30:19.975Z,3.33
2019-02-09T14:32:49.063Z,4.40
2019-02-09T14:35:18.139Z,3.22
2019-02-09T14:37:47.253Z,3.90
2019-02-09T14:40:19.098Z,3.55
2019-02-09T14:42:48.136Z,3.83
2019-02-09T14:45:22.625Z,3.58
2019-02-09T14:47:51.659Z,2.90
2019-02-09T14:50:20.808Z,2.30
2019-02-09T14:52:49.842Z,2.70
2019-02-09T14:55:22.196Z,2.35
2019-02-09T14:57:51.149Z,2.17
2019-02-09T15:00:22.357Z,2.17
2019-02-09T15:02:53.900Z,2.15
2019-02-09T15:05:22.248Z,2.05
2019-02-09T15:07:51.306Z,2.33
2019-02-09T15:10:20.373Z,2.05
2019-02-09T15:12:49.721Z,2.17
2019-02-09T15:15:27.424Z,1.87
2019-02-09T15:17:56.451Z,2.02
2019-02-09T15:20:31.272Z,2.10
2019-02-09T15:23:00.320Z,1.80
2019-02-09T15:25:29.382Z,2.00
2019-02-09T15:27:58.353Z,1.87
2019-02-09T15:30:28.372Z,2.00
2019-02-09T15:32:57.456Z,2.00
2019-02-09T15:35:26.499Z,1.98
2019-02-09T15:37:55.485Z,1.77
2019-02-09T15:40:24.483Z,1.80
2019-02-09T15:42:53.565Z,1.70
2019-02-09T15:45:22.564Z,2.20
2019-02-09T15:47:51.683Z,2.10
2019-02-09T15:50:20.818Z,2.12
2019-02-09T15:52:49.981Z,2.10
2019-02-09T15:55:19.919Z,1.98
2019-02-09T15:57:49.060Z,2.00
2019-02-09T16:00:28.569Z,2.17
2019-02-09T16:02:57.652Z,2.12
2019-02-09T16:05:26.684Z,2.03
2019-02-09T16:07:55.708Z,2.20
2019-02-09T16:10:25.160Z,2.40
2019-02-09T16:12:54.215Z,2.05
2019-02-09T16:15:25.162Z,2.25
2019-02-09T16:17:54.260Z,2.60
2019-02-09T16:20:24.004Z,3.25
2019-02-09T16:22:53.049Z,3.20
2019-02-09T16:25:22.246Z,3.45
2019-02-09T16:27:51.181Z,3.27
2019-02-09T16:30:21.978Z,3.42
2019-02-09T16:32:51.095Z,3.20
2019-02-09T16:35:21.819Z,4.10
2019-02-09T16:37:51.471Z,3.55
2019-02-09T16:40:22.748Z,3.83
2019-02-09T16:42:51.812Z,4.22
2019-02-09T16:45:34.024Z,4.42
2019-02-09T16:48:03.147Z,5.00
2019-02-09T16:50:32.171Z,4.55
2019-02-09T16:53:01.193Z,5.50
2019-02-09T16:55:30.193Z,5.08
2019-02-09T16:57:59.291Z,5.00
2019-02-09T17:00:34.460Z,5.58
2019-02-09T17:03:04.703Z,5.63
2019-02-09T17:05:33.685Z,5.43
2019-02-09T17:08:02.688Z,5.30
2019-02-09T17:10:31.728Z,5.78
2019-02-09T17:13:00.733Z,5.95
2019-02-09T17:15:29.834Z,6.87
2019-02-09T17:17:58.872Z,6.55
2019-02-09T17:20:27.893Z,6.90
2019-02-09T17:22:56.905Z,7.03
2019-02-09T17:25:26.371Z,6.77
2019-02-09T17:27:56.009Z,6.67
2019-02-09T17:30:26.574Z,7.17
2019-02-09T17:32:55.826Z,7.20
2019-02-09T17:35:26.868Z,7.23
2019-02-09T17:37:56.062Z,7.80
2019-02-09T17:40:29.255Z,8.13
2019-02-09T17:42:58.364Z,7.60
2019-02-09T17:45:33.767Z,7.12
2019-02-09T17:48:02.808Z,7.10
2019-02-09T17:50:31.856Z,6.90
2019-02-09T17:53:00.805Z,6.10
2019-02-09T17:55:29.798Z,6.08
2019-02-09T17:57:58.810Z,5.97
2019-02-09T18:00:37.048Z,5.62
2019-02-09T18:03:06.084Z,6.65
2019-02-09T18:05:35.076Z,6.60
2019-02-09T18:08:04.491Z,6.60
2019-02-09T18:10:33.513Z,7.55
2019-02-09T18:13:02.488Z,6.55
2019-02-09T18:15:31.531Z,5.70
2019-02-09T18:18:00.466Z,5.60
2019-02-09T18:20:29.436Z,5.75
2019-02-09T18:22:58.458Z,5.92
2019-02-09T18:25:27.483Z,6.58
2019-02-09T18:27:58.367Z,7.12
2019-02-09T18:30:27.452Z,7.40
2019-02-09T18:32:56.490Z,6.50
2019-02-09T18:35:25.508Z,7.00
2019-02-09T18:37:54.548Z,7.10
2019-02-09T18:40:23.590Z,6.83
2019-02-09T18:42:52.541Z,6.80
2019-02-09T18:45:23.605Z,7.10
2019-02-09T18:47:52.743Z,7.35
2019-02-09T18:50:23.635Z,7.65
2019-02-09T18:52:52.680Z,6.78
2019-02-09T18:55:22.855Z,6.30
2019-02-09T18:57:51.853Z,6.72
2019-02-09T19:00:23.403Z,6.20
2019-02-09T19:02:52.549Z,6.80
2019-02-09T19:05:21.574Z,6.17
2019-02-09T19:07:50.616Z,6.62
2019-02-09T19:10:21.536Z,7.15
2019-02-09T19:12:50.543Z,6.80
2019-02-09T19:15:20.165Z,7.00
2019-02-09T19:17:49.207Z,7.45
2019-02-09T19:20:23.554Z,7.58
2019-02-09T19:22:52.755Z,6.80
2019-02-09T19:25:22.284Z,7.12
2019-02-09T19:27:51.312Z,7.42
2019-02-09T19:30:21.386Z,7.55
2019-02-09T19:32:51.004Z,6.75
2019-02-09T19:35:20.008Z,6.90
2019-02-09T19:37:49.053Z,6.50
2019-02-09T19:40:18.312Z,6.20
2019-02-09T19:42:48.172Z,5.58
2019-02-09T19:45:22.144Z,5.53
2019-02-09T19:47:51.061Z,6.67
2019-02-09T19:50:20.105Z,7.08
2019-02-09T19:52:49.132Z,7.08
2019-02-09T19:55:20.187Z,6.60
2019-02-09T19:57:49.167Z,5.80
2019-02-09T20:00:20.893Z,5.90
2019-02-09T20:02:49.972Z,5.50
2019-02-09T20:05:20.076Z,6.10
2019-02-09T20:07:49.212Z,6.20
2019-02-09T20:10:21.604Z,7.40
2019-02-09T20:12:50.612Z,7.30
2019-02-09T20:15:19.552Z,7.28
2019-02-09T20:17:48.533Z,6.15
2019-02-09T20:20:17.689Z,6.20
2019-02-09T20:22:46.778Z,6.77
2019-02-09T20:25:17.810Z,6.70
2019-02-09T20:27:46.848Z,7.37
2019-02-09T20:30:21.209Z,6.72
2019-02-09T20:32:50.332Z,7.45
2019-02-09T20:35:19.574Z,7.35
2019-02-09T20:37:49.084Z,7.58
2019-02-09T20:40:31.169Z,7.60
2019-02-09T20:43:02.007Z,8.18
2019-02-09T20:45:30.640Z,9.25
2019-02-09T20:47:59.629Z,7.50
2019-02-09T20:50:28.644Z,6.62
2019-02-09T20:52:57.676Z,6.17
2019-02-09T20:55:26.688Z,6.22
2019-02-09T20:57:55.708Z,6.60
2019-02-09T21:00:25.671Z,7.83
2019-02-09T21:02:54.664Z,7.70
2019-02-09T21:05:24.091Z,7.42
2019-02-09T21:07:53.380Z,7.00
2019-02-09T21:10:24.164Z,6.87
2019-02-09T21:12:54.461Z,6.85
2019-02-09T21:15:24.716Z,6.63
2019-02-09T21:17:53.976Z,6.90
2019-02-09T21:20:22.948Z,6.20
2019-02-09T21:22:52.022Z,7.30
2019-02-09T21:25:29.151Z,8.20
2019-02-09T21:27:58.446Z,7.08
2019-02-09T21:30:27.993Z,7.40
2019-02-09T21:32:57.195Z,6.60
2019-02-09T21:35:26.263Z,6.65
2019-02-09T21:37:55.254Z,6.35
2019-02-09T21:40:25.597Z,6.75
2019-02-09T21:42:54.914Z,6.75
2019-02-09T21:45:23.970Z,6.92
2019-02-09T21:47:53.882Z,7.40
2019-02-09T21:50:25.124Z,9.20
2019-02-09T21:52:54.481Z,9.38
2019-02-09T21:55:24.422Z,8.50
2019-02-09T21:57:53.464Z,6.60
2019-02-09T22:00:27.365Z,6.53
2019-02-09T22:02:56.424Z,5.62
2019-02-09T22:05:25.481Z,5.25
2019-02-09T22:07:54.477Z,5.30
2019-02-09T22:10:29.215Z,5.20
2019-02-09T22:12:54.355Z,5.10
2019-02-09T22:15:24.905Z,6.05
2019-02-09T22:17:54.392Z,5.92
2019-02-09T22:20:23.304Z,6.25
2019-02-09T22:22:52.600Z,6.80
2019-02-09T22:25:22.616Z,6.10
2019-02-09T22:27:52.412Z,5.60
2019-02-09T22:30:23.692Z,5.78
2019-02-09T22:32:52.853Z,4.97
2019-02-09T22:35:22.134Z,4.78
2019-02-09T22:37:51.161Z,4.40
2019-02-09T22:40:22.184Z,4.30
2019-02-09T22:42:51.192Z,4.70
2019-02-09T22:45:21.096Z,4.85
2019-02-09T22:47:50.576Z,5.03
2019-02-09T22:50:24.733Z,4.50
2019-02-09T22:52:53.784Z,4.42
2019-02-09T22:55:22.849Z,4.63
2019-02-09T22:57:51.843Z,4.28
2019-02-09T23:00:43.720Z,4.25
2019-02-09T23:03:12.754Z,4.70
2019-02-09T23:06:21.821Z,4.90
2019-02-09T23:08:51.302Z,5.10
2019-02-09T23:11:20.343Z,5.28
2019-02-09T23:13:49.469Z,5.62
2019-02-09T23:16:21.567Z,6.42
2019-02-09T23:18:50.672Z,6.30
2019-02-09T23:21:20.820Z,5.90
2019-02-09T23:23:49.792Z,5.78
2019-02-09T23:26:18.833Z,5.60
2019-02-09T23:28:48.380Z,5.95
2019-02-09T23:31:17.386Z,5.60
2019-02-09T23:33:46.305Z,6.20
2019-02-09T23:36:16.605Z,5.83
2019-02-09T23:38:45.827Z,5.87
2019-02-09T23:41:14.827Z,6.10
2019-02-09T23:43:43.741Z,5.65
2019-02-09T23:46:13.120Z,5.60
2019-02-09T23:48:42.574Z,6.10
2019-02-09T23:51:11.902Z,5.50
2019-02-09T23:53:40.752Z,6.20
2019-02-09T23:56:09.672Z,5.70
2019-02-09T23:58:38.624Z,5.95
